地図

経路データ

SID SEASON NUMBER BASIN SUBBASIN NAME ISO_TIME NATURE LAT LON WMO_WIND WMO_PRES WMO_AGENCY TRACK_TYPE DIST2LAND LANDFALL IFLAG USA_AGENCY USA_ATCF_ID USA_LAT USA_LON USA_RECORD USA_STATUS USA_WIND USA_PRES USA_SSHS USA_R34_NE USA_R34_SE USA_R34_SW USA_R34_NW USA_R50_NE USA_R50_SE USA_R50_SW USA_R50_NW USA_R64_NE USA_R64_SE USA_R64_SW USA_R64_NW USA_POCI USA_ROCI USA_RMW USA_EYE TOKYO_LAT TOKYO_LON TOKYO_GRADE TOKYO_WIND TOKYO_PRES TOKYO_R50_DIR TOKYO_R50_LONG TOKYO_R50_SHORT TOKYO_R30_DIR TOKYO_R30_LONG TOKYO_R30_SHORT TOKYO_LAND CMA_LAT CMA_LON CMA_CAT CMA_WIND CMA_PRES HKO_LAT HKO_LON HKO_CAT HKO_WIND HKO_PRES NEWDELHI_LAT NEWDELHI_LON NEWDELHI_GRADE NEWDELHI_WIND NEWDELHI_PRES NEWDELHI_CI NEWDELHI_DP NEWDELHI_POCI REUNION_LAT REUNION_LON REUNION_TYPE REUNION_WIND REUNION_PRES REUNION_TNUM REUNION_CI REUNION_RMW REUNION_R34_NE REUNION_R34_SE REUNION_R34_SW REUNION_R34_NW REUNION_R50_NE REUNION_R50_SE REUNION_R50_SW REUNION_R50_NW REUNION_R64_NE REUNION_R64_SE REUNION_R64_SW REUNION_R64_NW BOM_LAT BOM_LON BOM_TYPE BOM_WIND BOM_PRES BOM_TNUM BOM_CI BOM_RMW BOM_R34_NE BOM_R34_SE BOM_R34_SW BOM_R34_NW BOM_R50_NE BOM_R50_SE BOM_R50_SW BOM_R50_NW BOM_R64_NE BOM_R64_SE BOM_R64_SW BOM_R64_NW BOM_ROCI BOM_POCI BOM_EYE BOM_POS_METHOD BOM_PRES_METHOD NADI_LAT NADI_LON NADI_CAT NADI_WIND NADI_PRES WELLINGTON_LAT WELLINGTON_LON WELLINGTON_WIND WELLINGTON_PRES DS824_LAT DS824_LON DS824_STAGE DS824_WIND DS824_PRES TD9636_LAT TD9636_LON TD9636_STAGE TD9636_WIND TD9636_PRES TD9635_LAT TD9635_LON TD9635_WIND TD9635_PRES TD9635_ROCI NEUMANN_LAT NEUMANN_LON NEUMANN_CLASS NEUMANN_WIND NEUMANN_PRES MLC_LAT MLC_LON MLC_CLASS MLC_WIND MLC_PRES USA_GUST BOM_GUST BOM_GUST_PER REUNION_GUST REUNION_GUST_PER USA_SEAHGT USA_SEARAD_NE USA_SEARAD_SE USA_SEARAD_SW USA_SEARAD_NW STORM_SPEED STORM_DIR
1952330N23300 1952 93 NA NA NOT_NAMED 1952-11-24 18:00:00 ET 22.5000 -60.0000 30 hurdat_atl main 741 741 O_____________ hurdat_atl AL111952 22.5000 -60.0000 EX 30 -4 15 64
1952330N23300 1952 93 NA NA NOT_NAMED 1952-11-24 21:00:00 ET 22.8329 -59.2629 main 819 819 P_____________ AL111952 22.8329 -59.2629 EX 32 -4 16 63
1952330N23300 1952 93 NA NA NOT_NAMED 1952-11-25 00:00:00 ET 23.2000 -58.5000 35 hurdat_atl main 912 912 O_____________ hurdat_atl AL111952 23.2000 -58.5000 EX 35 -4 16 61
1952330N23300 1952 93 NA NA NOT_NAMED 1952-11-25 03:00:00 ET 23.6276 -57.7126 main 1004 1004 P_____________ AL111952 23.6276 -57.7126 EX 37 -4 16 57
1952330N23300 1952 93 NA NA NOT_NAMED 1952-11-25 06:00:00 ET 24.1000 -57.0000 40 hurdat_atl main 1095 1095 O_____________ hurdat_atl AL111952 24.1000 -57.0000 EX 40 -4 15 50
1952330N23300 1952 93 NA NA NOT_NAMED 1952-11-25 09:00:00 ET 24.5996 -56.4397 main 1176 1176 P_____________ AL111952 24.5996 -56.4397 EX 42 -4 14 42
1952330N23300 1952 93 NA NA NOT_NAMED 1952-11-25 12:00:00 ET 25.1000 -56.0000 45 hurdat_atl main 1241 1241 O_____________ hurdat_atl AL111952 25.1000 -56.0000 EX 45 -4 12 38
1952330N23300 1952 93 NA NA NOT_NAMED 1952-11-25 15:00:00 ET 25.5724 -55.5973 main 1306 1306 P_____________ AL111952 25.5724 -55.5973 EX 45 -4 11 35
1952330N23300 1952 93 NA NA NOT_NAMED 1952-11-25 18:00:00 ET 26.0000 -55.3000 45 hurdat_atl main 1357 1357 O_____________ hurdat_atl AL111952 26.0000 -55.3000 EX 45 -4 9 29
1952330N23300 1952 93 NA NA NOT_NAMED 1952-11-25 21:00:00 ET 26.3649 -55.1121 main 1400 1400 P_____________ AL111952 26.3649 -55.1121 EX 45 -4 8 21
1952330N23300 1952 93 NA NA NOT_NAMED 1952-11-26 00:00:00 TS 26.7000 -55.0000 45 hurdat_atl main 1428 1428 O_____________ hurdat_atl AL111952 26.7000 -55.0000 TS 45 0 7 19
1952330N23300 1952 93 NA NA NOT_NAMED 1952-11-26 03:00:00 TS 27.0574 -54.8403 main 1472 1472 P_____________ AL111952 27.0574 -54.8403 TS 45 0 7 14
1952330N23300 1952 93 NA NA NOT_NAMED 1952-11-26 06:00:00 TS 27.4000 -54.8000 45 992 hurdat_atl main 1493 1493 O_____________ hurdat_atl AL111952 27.4000 -54.8000 TS 45 992 0 7 352
1952330N23300 1952 93 NA NA NOT_NAMED 1952-11-26 09:00:00 TS 27.7222 -54.9449 main 1507 1500 P_____________ AL111952 27.7222 -54.9449 TS 45 0 7 324
1952330N23300 1952 93 NA NA NOT_NAMED 1952-11-26 12:00:00 TS 28.0000 -55.3000 45 hurdat_atl main 1501 1481 O_____________ hurdat_atl AL111952 28.0000 -55.3000 TS 45 0 9 302
1952330N23300 1952 93 NA NA NOT_NAMED 1952-11-26 15:00:00 TS 28.2150 -55.8252 main 1481 1451 P_____________ AL111952 28.2150 -55.8252 TS 45 0 11 291
1952330N23300 1952 93 NA NA NOT_NAMED 1952-11-26 18:00:00 TS 28.4000 -56.5000 45 hurdat_atl main 1451 1424 O_____________ hurdat_atl AL111952 28.4000 -56.5000 TS 45 0 13 287
1952330N23300 1952 93 NA NA NOT_NAMED 1952-11-26 21:00:00 TS 28.6002 -57.2426 main 1424 1395 P_____________ AL111952 28.6002 -57.2426 TS 47 0 14 287
1952330N23300 1952 93 NA NA NOT_NAMED 1952-11-27 00:00:00 TS 28.8000 -58.0000 50 hurdat_atl main 1395 1376 O_____________ hurdat_atl AL111952 28.8000 -58.0000 TS 50 0 13 288
1952330N23300 1952 93 NA NA NOT_NAMED 1952-11-27 03:00:00 TS 29.0223 -58.6873 main 1376 1365 P_____________ AL111952 29.0223 -58.6873 TS 50 0 12 289
1952330N23300 1952 93 NA NA NOT_NAMED 1952-11-27 06:00:00 TS 29.2000 -59.3000 50 hurdat_atl main 1365 1352 O_____________ hurdat_atl AL111952 29.2000 -59.3000 TS 50 0 10 286
1952330N23300 1952 93 NA NA NOT_NAMED 1952-11-27 09:00:00 TS 29.3020 -59.8225 main 1352 1331 P_____________ AL111952 29.3020 -59.8225 TS 50 0 9 277
1952330N23300 1952 93 NA NA NOT_NAMED 1952-11-27 12:00:00 TS 29.3000 -60.3000 50 hurdat_atl main 1331 1301 O_____________ hurdat_atl AL111952 29.3000 -60.3000 TS 50 0 9 263
1952330N23300 1952 93 NA NA NOT_NAMED 1952-11-27 15:00:00 TS 29.2023 -60.8000 main 1301 1262 P_____________ AL111952 29.2023 -60.8000 TS 50 0 9 251
1952330N23300 1952 93 NA NA NOT_NAMED 1952-11-27 18:00:00 TS 29.0000 -61.3000 50 hurdat_atl main 1262 1214 O_____________ hurdat_atl AL111952 29.0000 -61.3000 TS 50 0 10 242
1952330N23300 1952 93 NA NA NOT_NAMED 1952-11-27 21:00:00 TS 28.7227 -61.8530 main 1211 1167 P_____________ AL111952 28.7227 -61.8530 TS 50 0 11 236
1952330N23300 1952 93 NA NA NOT_NAMED 1952-11-28 00:00:00 TS 28.4000 -62.3000 50 hurdat_atl main 1167 1129 O_____________ hurdat_atl AL111952 28.4000 -62.3000 TS 50 0 9 223
1952330N23300 1952 93 NA NA NOT_NAMED 1952-11-28 03:00:00 TS 28.0997 -62.5171 main 1129 1094 P_____________ AL111952 28.0997 -62.5171 TS 50 0 7 204
1952330N23300 1952 93 NA NA NOT_NAMED 1952-11-28 06:00:00 TS 27.8000 -62.6000 50 hurdat_atl main 1094 1059 O_____________ hurdat_atl AL111952 27.8000 -62.6000 TS 50 0 6 192
1952330N23300 1952 93 NA NA NOT_NAMED 1952-11-28 09:00:00 TS 27.4775 -62.6724 main 1059 1027 P_____________ AL111952 27.4775 -62.6724 TS 50 0 6 188
1952330N23300 1952 93 NA NA NOT_NAMED 1952-11-28 12:00:00 TS 27.2000 -62.7000 50 hurdat_atl main 1027 1006 O_____________ hurdat_atl AL111952 27.2000 -62.7000 TS 50 0 5 186
1952330N23300 1952 93 NA NA NOT_NAMED 1952-11-28 15:00:00 TS 27.0275 -62.7300 main 1006 995 P_____________ AL111952 27.0275 -62.7300 TS 47 0 3 0
1952330N23300 1952 93 NA NA NOT_NAMED 1952-11-28 18:00:00 TS 26.9000 -62.7000 45 hurdat_atl main 995 984 O_____________ hurdat_atl AL111952 26.9000 -62.7000 TS 45 0 3 163
1952330N23300 1952 93 NA NA NOT_NAMED 1952-11-28 21:00:00 TS 26.7496 -62.6327 main 977 970 P_____________ AL111952 26.7496 -62.6327 TS 45 0 4 138
1952330N23300 1952 93 NA NA NOT_NAMED 1952-11-29 00:00:00 TS 26.6000 -62.4000 45 hurdat_atl main 973 966 O_____________ hurdat_atl AL111952 26.6000 -62.4000 TS 45 0 7 116
1952330N23300 1952 93 NA NA NOT_NAMED 1952-11-29 03:00:00 TS 26.4353 -61.9097 main 971 971 P_____________ AL111952 26.4353 -61.9097 TS 42 0 10 107
1952330N23300 1952 93 NA NA NOT_NAMED 1952-11-29 06:00:00 TS 26.3000 -61.3000 40 hurdat_atl main 987 987 O_____________ hurdat_atl AL111952 26.3000 -61.3000 TS 40 0 10 102
1952330N23300 1952 93 NA NA NOT_NAMED 1952-11-29 09:00:00 TS 26.2270 -60.7726 main 1001 1001 P_____________ AL111952 26.2270 -60.7726 TS 40 0 10 96
1952330N23300 1952 93 NA NA NOT_NAMED 1952-11-29 12:00:00 TS 26.2000 -60.2000 40 hurdat_atl main 1033 1033 O_____________ hurdat_atl AL111952 26.2000 -60.2000 TS 40 0 11 92
1952330N23300 1952 93 NA NA NOT_NAMED 1952-11-29 15:00:00 TS 26.1927 -59.5076 main 1073 1073 P_____________ AL111952 26.1927 -59.5076 TS 37 0 13 90
1952330N23300 1952 93 NA NA NOT_NAMED 1952-11-29 18:00:00 TS 26.2000 -58.8000 35 hurdat_atl main 1117 1117 O_____________ hurdat_atl AL111952 26.2000 -58.8000 TS 35 0 12 91
1952330N23300 1952 93 NA NA NOT_NAMED 1952-11-29 21:00:00 TS 26.1775 -58.1398 main 1163 1163 P_____________ AL111952 26.1775 -58.1398 TS 35 0 11 90
1952330N23300 1952 93 NA NA NOT_NAMED 1952-11-30 00:00:00 TS 26.2000 -57.6000 35 hurdat_atl main 1198 1198 O_____________ hurdat_atl AL111952 26.2000 -57.6000 TS 35 0 8 79
1952330N23300 1952 93 NA NA NOT_NAMED 1952-11-30 03:00:00 TS 26.3347 -57.2327 main 1234 1234 P_____________ AL111952 26.3347 -57.2327 TS 32 -1 6 61
1952330N23300 1952 93 NA NA NOT_NAMED 1952-11-30 06:00:00 TS 26.5000 -57.0000 30 hurdat_atl main 1264 1264 O_____________ hurdat_atl AL111952 26.5000 -57.0000 TD 30 -1 4 53
1952330N23300 1952 93 NA NA NOT_NAMED 1952-11-30 09:00:00 TS 26.5999 -56.8348 main 1286 1286 P_____________ AL111952 26.5999 -56.8348 TD 30 -1 3 53
1952330N23300 1952 93 NA NA NOT_NAMED 1952-11-30 12:00:00 TS 26.7000 -56.7000 30 hurdat_atl main 1301 1301 O_____________ hurdat_atl AL111952 26.7000 -56.7000 TD 30 -1 4 50
1952330N23300 1952 93 NA NA NOT_NAMED 1952-11-30 15:00:00 TS 26.8376 -56.5177 main 1323 1323 P_____________ AL111952 26.8376 -56.5177 TD 30 -1 5 50
1952330N23300 1952 93 NA NA NOT_NAMED 1952-11-30 18:00:00 ET 27.0000 -56.3000 30 hurdat_atl main 1353 O_____________ hurdat_atl AL111952 27.0000 -56.3000 EX 30 -4 5 50

IBTrACS Databaseについて

本データベースは、米国NOAAが公開する1842年以降の世界の熱帯低気圧のベストトラックデータアーカイブInternational Best Track Archive for Climate Stewardship (IBTrACS)を、ウェブで閲覧しやすい形式に変換したものです。

最終更新日:2021-10-08